sensor_id;sensor_type;location;lat;lon;timestamp;pressure;altitude;pressure_sealevel;temperature;humidity
3844;BME280;1937;51.444;6.484;2023-04-29T00:00:39;68088.25;;;11.23;100.00
3844;BME280;1937;51.444;6.484;2023-04-29T00:03:07;68150.94;;;11.44;100.00
3844;BME280;1937;51.444;6.484;2023-04-29T00:05:33;68152.72;;;11.45;100.00
3844;BME280;1937;51.444;6.484;2023-04-29T00:08:00;68143.91;;;11.49;100.00
3844;BME280;1937;51.444;6.484;2023-04-29T00:10:28;68131.41;;;11.52;100.00
3844;BME280;1937;51.444;6.484;2023-04-29T00:12:54;68114.16;;;11.39;100.00
3844;BME280;1937;51.444;6.484;2023-04-29T00:15:21;68117.53;;;11.37;100.00
3844;BME280;1937;51.444;6.484;2023-04-29T00:17:47;68135.03;;;11.48;100.00
3844;BME280;1937;51.444;6.484;2023-04-29T00:20:16;68134.56;;;11.52;100.00
3844;BME280;1937;51.444;6.484;2023-04-29T00:22:43;68108.06;;;11.47;100.00
3844;BME280;1937;51.444;6.484;2023-04-29T00:25:09;68089.53;;;11.29;100.00
3844;BME280;1937;51.444;6.484;2023-04-29T00:27:36;68152.13;;;11.45;100.00
3844;BME280;1937;51.444;6.484;2023-04-29T00:30:04;68088.47;;;11.32;100.00
3844;BME280;1937;51.444;6.484;2023-04-29T00:32:31;68080.63;;;11.28;100.00
3844;BME280;1937;51.444;6.484;2023-04-29T00:34:58;68085.19;;;11.27;100.00
3844;BME280;1937;51.444;6.484;2023-04-29T00:37:26;68050.59;;;11.08;100.00
3844;BME280;1937;51.444;6.484;2023-04-29T00:39:52;68057.53;;;11.10;100.00
3844;BME280;1937;51.444;6.484;2023-04-29T00:42:19;67994.50;;;10.98;100.00
3844;BME280;1937;51.444;6.484;2023-04-29T00:44:46;68065.63;;;11.13;100.00
3844;BME280;1937;51.444;6.484;2023-04-29T00:47:12;68047.00;;;11.12;100.00
3844;BME280;1937;51.444;6.484;2023-04-29T00:49:39;68069.25;;;11.20;100.00
3844;BME280;1937;51.444;6.484;2023-04-29T00:52:06;68000.72;;;10.83;100.00
3844;BME280;1937;51.444;6.484;2023-04-29T00:54:36;68001.41;;;10.77;100.00
3844;BME280;1937;51.444;6.484;2023-04-29T00:57:03;68034.78;;;10.84;100.00
3844;BME280;1937;51.444;6.484;2023-04-29T00:59:31;68051.97;;;10.85;100.00
3844;BME280;1937;51.444;6.484;2023-04-29T01:01:59;68081.75;;;10.95;100.00
3844;BME280;1937;51.444;6.484;2023-04-29T01:04:26;68031.63;;;10.94;100.00
3844;BME280;1937;51.444;6.484;2023-04-29T01:06:57;68010.28;;;10.78;100.00
3844;BME280;1937;51.444;6.484;2023-04-29T01:09:41;68020.63;;;10.89;100.00
3844;BME280;1937;51.444;6.484;2023-04-29T01:12:16;68040.84;;;10.87;100.00
3844;BME280;1937;51.444;6.484;2023-04-29T01:14:51;67965.69;;;10.80;100.00
3844;BME280;1937;51.444;6.484;2023-04-29T01:17:24;68003.75;;;10.90;100.00
3844;BME280;1937;51.444;6.484;2023-04-29T01:19:53;67990.75;;;10.86;100.00
3844;BME280;1937;51.444;6.484;2023-04-29T01:22:21;67960.22;;;10.88;100.00
3844;BME280;1937;51.444;6.484;2023-04-29T01:24:49;67999.78;;;10.91;100.00
3844;BME280;1937;51.444;6.484;2023-04-29T01:27:23;67987.59;;;10.96;100.00
3844;BME280;1937;51.444;6.484;2023-04-29T01:29:59;67952.59;;;10.93;100.00
3844;BME280;1937;51.444;6.484;2023-04-29T01:32:34;67960.09;;;10.84;100.00
3844;BME280;1937;51.444;6.484;2023-04-29T01:35:12;68015.00;;;10.93;100.00
3844;BME280;1937;51.444;6.484;2023-04-29T01:37:48;67952.94;;;10.84;100.00
3844;BME280;1937;51.444;6.484;2023-04-29T01:40:21;67969.44;;;10.92;100.00
3844;BME280;1937;51.444;6.484;2023-04-29T01:42:55;67916.06;;;10.63;100.00
3844;BME280;1937;51.444;6.484;2023-04-29T01:45:26;67950.72;;;10.64;100.00
3844;BME280;1937;51.444;6.484;2023-04-29T01:47:54;67886.00;;;10.51;100.00
3844;BME280;1937;51.444;6.484;2023-04-29T01:50:21;67938.88;;;10.61;100.00
3844;BME280;1937;51.444;6.484;2023-04-29T01:52:47;67954.09;;;10.63;100.00
3844;BME280;1937;51.444;6.484;2023-04-29T01:55:14;67905.66;;;10.48;100.00
3844;BME280;1937;51.444;6.484;2023-04-29T01:57:42;67935.47;;;10.51;100.00
3844;BME280;1937;51.444;6.484;2023-04-29T02:00:10;67937.00;;;10.44;100.00
3844;BME280;1937;51.444;6.484;2023-04-29T02:02:36;67917.44;;;10.29;100.00
3844;BME280;1937;51.444;6.484;2023-04-29T02:05:03;68016.44;;;10.52;100.00
3844;BME280;1937;51.444;6.484;2023-04-29T02:07:30;68006.19;;;10.63;100.00
3844;BME280;1937;51.444;6.484;2023-04-29T02:09:56;68010.66;;;10.81;100.00
3844;BME280;1937;51.444;6.484;2023-04-29T02:12:23;68009.13;;;10.77;100.00
3844;BME280;1937;51.444;6.484;2023-04-29T02:14:52;68034.31;;;10.88;100.00
3844;BME280;1937;51.444;6.484;2023-04-29T02:17:19;67919.13;;;10.59;100.00
3844;BME280;1937;51.444;6.484;2023-04-29T02:19:45;67949.75;;;10.50;100.00
3844;BME280;1937;51.444;6.484;2023-04-29T02:22:12;67982.78;;;10.77;100.00
3844;BME280;1937;51.444;6.484;2023-04-29T02:24:39;67940.16;;;10.44;100.00
3844;BME280;1937;51.444;6.484;2023-04-29T02:27:06;67919.22;;;10.53;100.00
3844;BME280;1937;51.444;6.484;2023-04-29T02:29:32;67986.28;;;10.68;100.00
3844;BME280;1937;51.444;6.484;2023-04-29T02:32:00;67974.81;;;10.67;100.00
3844;BME280;1937;51.444;6.484;2023-04-29T02:34:26;67980.78;;;10.66;100.00
3844;BME280;1937;51.444;6.484;2023-04-29T02:36:53;67961.81;;;10.63;100.00
3844;BME280;1937;51.444;6.484;2023-04-29T02:39:20;68004.19;;;10.75;100.00
3844;BME280;1937;51.444;6.484;2023-04-29T02:41:47;67964.41;;;10.63;100.00
3844;BME280;1937;51.444;6.484;2023-04-29T02:44:13;67976.56;;;10.58;100.00
3844;BME280;1937;51.444;6.484;2023-04-29T02:46:40;67957.97;;;10.57;100.00
3844;BME280;1937;51.444;6.484;2023-04-29T02:49:11;67945.19;;;10.51;100.00
3844;BME280;1937;51.444;6.484;2023-04-29T02:51:38;67947.66;;;10.46;100.00
3844;BME280;1937;51.444;6.484;2023-04-29T02:54:05;67930.44;;;10.34;100.00
3844;BME280;1937;51.444;6.484;2023-04-29T02:56:32;67899.44;;;10.29;100.00
3844;BME280;1937;51.444;6.484;2023-04-29T02:58:58;67903.63;;;10.37;100.00
3844;BME280;1937;51.444;6.484;2023-04-29T03:01:25;67923.28;;;10.23;100.00
3844;BME280;1937;51.444;6.484;2023-04-29T03:03:51;67895.69;;;10.17;100.00
3844;BME280;1937;51.444;6.484;2023-04-29T03:06:20;67899.31;;;10.24;100.00
3844;BME280;1937;51.444;6.484;2023-04-29T03:08:46;67949.84;;;10.33;100.00
3844;BME280;1937;51.444;6.484;2023-04-29T03:11:13;67895.31;;;10.25;100.00
3844;BME280;1937;51.444;6.484;2023-04-29T03:13:40;67922.22;;;10.26;100.00
3844;BME280;1937;51.444;6.484;2023-04-29T03:16:06;67937.34;;;10.46;100.00
3844;BME280;1937;51.444;6.484;2023-04-29T03:18:33;67935.81;;;10.43;100.00
3844;BME280;1937;51.444;6.484;2023-04-29T03:20:59;67932.09;;;10.42;100.00
3844;BME280;1937;51.444;6.484;2023-04-29T03:23:30;67904.81;;;10.27;100.00
3844;BME280;1937;51.444;6.484;2023-04-29T03:25:56;67942.13;;;10.33;100.00
3844;BME280;1937;51.444;6.484;2023-04-29T03:28:23;67947.44;;;10.48;100.00
3844;BME280;1937;51.444;6.484;2023-04-29T03:30:49;67965.78;;;10.51;100.00
3844;BME280;1937;51.444;6.484;2023-04-29T03:33:16;67936.03;;;10.30;100.00
3844;BME280;1937;51.444;6.484;2023-04-29T03:35:43;67957.22;;;10.41;100.00
3844;BME280;1937;51.444;6.484;2023-04-29T03:38:09;67968.72;;;10.53;100.00
3844;BME280;1937;51.444;6.484;2023-04-29T03:40:37;67926.69;;;10.44;100.00
3844;BME280;1937;51.444;6.484;2023-04-29T03:43:04;67951.63;;;10.45;100.00
3844;BME280;1937;51.444;6.484;2023-04-29T03:45:32;67937.47;;;10.40;100.00
3844;BME280;1937;51.444;6.484;2023-04-29T03:47:58;67936.66;;;10.41;100.00
3844;BME280;1937;51.444;6.484;2023-04-29T03:50:25;67980.06;;;10.61;100.00
3844;BME280;1937;51.444;6.484;2023-04-29T03:52:51;67993.41;;;10.68;100.00
3844;BME280;1937;51.444;6.484;2023-04-29T03:55:18;67940.75;;;10.56;100.00
3844;BME280;1937;51.444;6.484;2023-04-29T03:57:46;67914.28;;;10.40;100.00
3844;BME280;1937;51.444;6.484;2023-04-29T04:00:13;67893.00;;;10.35;100.00
3844;BME280;1937;51.444;6.484;2023-04-29T04:02:40;67916.63;;;10.31;100.00
3844;BME280;1937;51.444;6.484;2023-04-29T04:05:06;67929.75;;;10.40;100.00
3844;BME280;1937;51.444;6.484;2023-04-29T04:07:34;67911.13;;;10.39;100.00
3844;BME280;1937;51.444;6.484;2023-04-29T04:10:01;67939.34;;;10.46;100.00
3844;BME280;1937;51.444;6.484;2023-04-29T04:12:28;67945.19;;;10.51;100.00
3844;BME280;1937;51.444;6.484;2023-04-29T04:14:55;67935.72;;;10.60;100.00
3844;BME280;1937;51.444;6.484;2023-04-29T04:17:23;67923.78;;;10.63;100.00
3844;BME280;1937;51.444;6.484;2023-04-29T04:19:49;67982.31;;;10.81;100.00
3844;BME280;1937;51.444;6.484;2023-04-29T04:22:16;67913.81;;;10.44;100.00
3844;BME280;1937;51.444;6.484;2023-04-29T04:24:43;67963.91;;;10.56;100.00
3844;BME280;1937;51.444;6.484;2023-04-29T04:27:09;67901.78;;;10.42;100.00
3844;BME280;1937;51.444;6.484;2023-04-29T04:29:36;67897.09;;;10.27;100.00
3844;BME280;1937;51.444;6.484;2023-04-29T04:32:04;67956.88;;;10.50;100.00
3844;BME280;1937;51.444;6.484;2023-04-29T04:34:31;67916.06;;;10.41;100.00
3844;BME280;1937;51.444;6.484;2023-04-29T04:36:57;67955.72;;;10.49;100.00
3844;BME280;1937;51.444;6.484;2023-04-29T04:39:24;67913.50;;;10.52;100.00
3844;BME280;1937;51.444;6.484;2023-04-29T04:41:51;67910.56;;;10.39;100.00
3844;BME280;1937;51.444;6.484;2023-04-29T04:44:17;67884.22;;;10.27;100.00
3844;BME280;1937;51.444;6.484;2023-04-29T04:46:44;67870.31;;;10.31;100.00
3844;BME280;1937;51.444;6.484;2023-04-29T04:49:12;67900.50;;;10.37;100.00
3844;BME280;1937;51.444;6.484;2023-04-29T04:51:38;67916.53;;;10.48;100.00
3844;BME280;1937;51.444;6.484;2023-04-29T04:54:05;67937.25;;;10.53;100.00
3844;BME280;1937;51.444;6.484;2023-04-29T04:56:31;67955.16;;;10.59;100.00
3844;BME280;1937;51.444;6.484;2023-04-29T04:58:58;67920.84;;;10.50;100.00
3844;BME280;1937;51.444;6.484;2023-04-29T05:01:25;67911.03;;;10.46;100.00
3844;BME280;1937;51.444;6.484;2023-04-29T05:03:51;67898.84;;;10.40;100.00
3844;BME280;1937;51.444;6.484;2023-04-29T05:06:19;67939.81;;;10.64;100.00
3844;BME280;1937;51.444;6.484;2023-04-29T05:08:46;67914.31;;;10.51;100.00
3844;BME280;1937;51.444;6.484;2023-04-29T05:11:16;67915.72;;;10.61;100.00
3844;BME280;1937;51.444;6.484;2023-04-29T05:13:43;67918.53;;;10.48;100.00
3844;BME280;1937;51.444;6.484;2023-04-29T05:16:10;67878.03;;;10.42;99.92
3844;BME280;1937;51.444;6.484;2023-04-29T05:18:37;67879.56;;;10.45;100.00
3844;BME280;1937;51.444;6.484;2023-04-29T05:21:03;67920.53;;;10.70;99.00
3844;BME280;1937;51.444;6.484;2023-04-29T05:23:31;67922.97;;;10.65;97.96
3844;BME280;1937;51.444;6.484;2023-04-29T05:25:58;67901.81;;;10.64;98.95
3844;BME280;1937;51.444;6.484;2023-04-29T05:28:24;67897.34;;;10.58;99.30
3844;BME280;1937;51.444;6.484;2023-04-29T05:30:51;67878.38;;;10.66;98.65
3844;BME280;1937;51.444;6.484;2023-04-29T05:33:18;67890.31;;;10.63;98.10
3844;BME280;1937;51.444;6.484;2023-04-29T05:35:44;67877.94;;;10.59;98.65
3844;BME280;1937;51.444;6.484;2023-04-29T05:38:11;67947.19;;;10.73;98.72
3844;BME280;1937;51.444;6.484;2023-04-29T05:40:39;67918.88;;;10.73;98.37
3844;BME280;1937;51.444;6.484;2023-04-29T05:43:06;67915.00;;;10.67;98.20
3844;BME280;1937;51.444;6.484;2023-04-29T05:45:32;67891.38;;;10.71;98.17
3844;BME280;1937;51.444;6.484;2023-04-29T05:47:59;67873.81;;;10.67;98.24
3844;BME280;1937;51.444;6.484;2023-04-29T05:50:25;67946.75;;;10.77;97.69
3844;BME280;1937;51.444;6.484;2023-04-29T05:52:52;67903.56;;;10.77;97.55
3844;BME280;1937;51.444;6.484;2023-04-29T05:55:19;67844.47;;;10.48;98.41
3844;BME280;1937;51.444;6.484;2023-04-29T05:57:47;67875.00;;;10.57;98.69
3844;BME280;1937;51.444;6.484;2023-04-29T06:00:13;67900.97;;;10.77;97.22
3844;BME280;1937;51.444;6.484;2023-04-29T06:02:40;67893.25;;;10.66;97.58
3844;BME280;1937;51.444;6.484;2023-04-29T06:05:10;67860.94;;;10.78;96.35
3844;BME280;1937;51.444;6.484;2023-04-29T06:07:36;67918.06;;;10.85;96.50
3844;BME280;1937;51.444;6.484;2023-04-29T06:10:04;67867.75;;;10.75;96.15
3844;BME280;1937;51.444;6.484;2023-04-29T06:12:31;67914.31;;;10.73;96.58
3844;BME280;1937;51.444;6.484;2023-04-29T06:14:59;67895.47;;;10.86;96.38
3844;BME280;1937;51.444;6.484;2023-04-29T06:17:26;67834.75;;;10.71;95.99
3844;BME280;1937;51.444;6.484;2023-04-29T06:19:53;67838.94;;;10.68;96.28
3844;BME280;1937;51.444;6.484;2023-04-29T06:22:20;67825.88;;;10.59;96.38
3844;BME280;1937;51.444;6.484;2023-04-29T06:24:47;67872.19;;;10.70;96.57
3844;BME280;1937;51.444;6.484;2023-04-29T06:27:14;67926.16;;;10.88;96.22
3844;BME280;1937;51.444;6.484;2023-04-29T06:29:41;67903.19;;;10.97;96.08
3844;BME280;1937;51.444;6.484;2023-04-29T06:32:08;67883.28;;;10.91;95.72
3844;BME280;1937;51.444;6.484;2023-04-29T06:34:35;67850.88;;;10.87;95.21
3844;BME280;1937;51.444;6.484;2023-04-29T06:37:03;67835.09;;;10.74;94.58
3844;BME280;1937;51.444;6.484;2023-04-29T06:39:30;67841.03;;;10.72;94.46
3844;BME280;1937;51.444;6.484;2023-04-29T06:41:56;67835.53;;;10.81;94.06
3844;BME280;1937;51.444;6.484;2023-04-29T06:44:24;67891.13;;;11.06;93.63
3844;BME280;1937;51.444;6.484;2023-04-29T06:46:50;67885.38;;;11.17;92.03
3844;BME280;1937;51.444;6.484;2023-04-29T06:49:19;67895.78;;;11.22;91.39
3844;BME280;1937;51.444;6.484;2023-04-29T06:51:46;67830.25;;;10.98;91.52
3844;BME280;1937;51.444;6.484;2023-04-29T06:54:12;67839.03;;;10.95;93.25
3844;BME280;1937;51.444;6.484;2023-04-29T06:56:39;67781.25;;;10.60;93.46
3844;BME280;1937;51.444;6.484;2023-04-29T06:59:06;67851.22;;;11.01;92.66
3844;BME280;1937;51.444;6.484;2023-04-29T07:01:32;67813.06;;;10.86;92.25
3844;BME280;1937;51.444;6.484;2023-04-29T07:03:59;67823.47;;;11.01;92.34
3844;BME280;1937;51.444;6.484;2023-04-29T07:06:27;67895.78;;;11.22;92.07
3844;BME280;1937;51.444;6.484;2023-04-29T07:08:54;67941.81;;;11.41;90.71
3844;BME280;1937;51.444;6.484;2023-04-29T07:11:20;67934.88;;;11.51;91.21
3844;BME280;1937;51.444;6.484;2023-04-29T07:13:49;67932.38;;;11.67;90.12
3844;BME280;1937;51.444;6.484;2023-04-29T07:16:18;67936.03;;;11.63;90.28
3844;BME280;1937;51.444;6.484;2023-04-29T07:18:46;67947.28;;;11.77;90.17
3844;BME280;1937;51.444;6.484;2023-04-29T07:21:12;67977.03;;;11.87;89.21
3844;BME280;1937;51.444;6.484;2023-04-29T07:23:40;67974.78;;;11.90;88.52
3844;BME280;1937;51.444;6.484;2023-04-29T07:26:10;67990.13;;;12.08;88.31
3844;BME280;1937;51.444;6.484;2023-04-29T07:28:37;67986.97;;;12.07;87.32
3844;BME280;1937;51.444;6.484;2023-04-29T07:31:04;67968.91;;;12.07;88.22
3844;BME280;1937;51.444;6.484;2023-04-29T07:33:31;67938.00;;;11.74;89.26
3844;BME280;1937;51.444;6.484;2023-04-29T07:35:58;67992.84;;;12.01;88.53
3844;BME280;1937;51.444;6.484;2023-04-29T07:38:25;67946.28;;;11.97;88.49
3844;BME280;1937;51.444;6.484;2023-04-29T07:40:53;67944.16;;;12.04;87.57
3844;BME280;1937;51.444;6.484;2023-04-29T07:43:19;68010.63;;;12.14;87.86
3844;BME280;1937;51.444;6.484;2023-04-29T07:45:46;67967.59;;;12.13;88.01
3844;BME280;1937;51.444;6.484;2023-04-29T07:48:13;67986.22;;;12.24;88.38
3844;BME280;1937;51.444;6.484;2023-04-29T07:50:40;67951.91;;;12.04;87.11
3844;BME280;1937;51.444;6.484;2023-04-29T07:53:06;67896.16;;;11.73;89.37
3844;BME280;1937;51.444;6.484;2023-04-29T07:55:33;67934.69;;;11.91;89.53
3844;BME280;1937;51.444;6.484;2023-04-29T07:58:01;67932.34;;;12.00;88.72
3844;BME280;1937;51.444;6.484;2023-04-29T08:00:27;67948.63;;;11.99;87.32
3844;BME280;1937;51.444;6.484;2023-04-29T08:02:55;67899.28;;;11.85;88.46
3844;BME280;1937;51.444;6.484;2023-04-29T08:05:22;67880.47;;;11.64;88.30
3844;BME280;1937;51.444;6.484;2023-04-29T08:07:49;67884.09;;;11.72;88.92
3844;BME280;1937;51.444;6.484;2023-04-29T08:10:16;67934.09;;;11.90;89.30
3844;BME280;1937;51.444;6.484;2023-04-29T08:12:44;67872.72;;;11.64;89.85
3844;BME280;1937;51.444;6.484;2023-04-29T08:15:12;67903.91;;;11.62;89.47
3844;BME280;1937;51.444;6.484;2023-04-29T08:17:39;67853.59;;;11.41;90.25
3844;BME280;1937;51.444;6.484;2023-04-29T08:20:06;67847.84;;;11.40;90.34
3844;BME280;1937;51.444;6.484;2023-04-29T08:22:33;67876.25;;;11.56;90.57
3844;BME280;1937;51.444;6.484;2023-04-29T08:25:00;67837.91;;;11.32;91.19
3844;BME280;1937;51.444;6.484;2023-04-29T08:27:28;67872.81;;;11.42;90.88
3844;BME280;1937;51.444;6.484;2023-04-29T08:29:54;67846.22;;;11.32;91.42
3844;BME280;1937;51.444;6.484;2023-04-29T08:32:22;67845.25;;;11.40;89.93
3844;BME280;1937;51.444;6.484;2023-04-29T08:34:49;67850.28;;;11.47;89.41
3844;BME280;1937;51.444;6.484;2023-04-29T08:37:15;67862.72;;;11.40;89.48
3844;BME280;1937;51.444;6.484;2023-04-29T08:39:42;67889.84;;;11.61;89.45
3844;BME280;1937;51.444;6.484;2023-04-29T08:42:11;67904.25;;;11.76;89.06
3844;BME280;1937;51.444;6.484;2023-04-29T08:44:38;67886.06;;;11.82;88.38
3844;BME280;1937;51.444;6.484;2023-04-29T08:47:06;67911.59;;;11.84;87.77
3844;BME280;1937;51.444;6.484;2023-04-29T08:49:35;67874.25;;;11.68;89.86
3844;BME280;1937;51.444;6.484;2023-04-29T08:52:02;67950.78;;;11.80;89.69
3844;BME280;1937;51.444;6.484;2023-04-29T08:54:30;67931.94;;;11.60;89.68
3844;BME280;1937;51.444;6.484;2023-04-29T08:56:57;67887.03;;;11.74;89.17
3844;BME280;1937;51.444;6.484;2023-04-29T08:59:27;67922.53;;;11.74;89.12
3844;BME280;1937;51.444;6.484;2023-04-29T09:01:55;67880.38;;;11.60;88.79
3844;BME280;1937;51.444;6.484;2023-04-29T09:04:33;67876.72;;;11.74;88.47
3844;BME280;1937;51.444;6.484;2023-04-29T09:07:06;67904.09;;;11.94;88.31
3844;BME280;1937;51.444;6.484;2023-04-29T09:09:33;67940.16;;;12.05;87.39
3844;BME280;1937;51.444;6.484;2023-04-29T09:12:00;67928.69;;;12.04;86.63
3844;BME280;1937;51.444;6.484;2023-04-29T09:14:27;67875.66;;;11.78;87.51
3844;BME280;1937;51.444;6.484;2023-04-29T09:16:57;67887.44;;;11.93;87.41
3844;BME280;1937;51.444;6.484;2023-04-29T09:19:30;67878.94;;;11.72;89.42
3844;BME280;1937;51.444;6.484;2023-04-29T09:21:58;67960.13;;;12.00;88.08
3844;BME280;1937;51.444;6.484;2023-04-29T09:24:28;67920.94;;;12.04;87.88
3844;BME280;1937;51.444;6.484;2023-04-29T09:26:55;68011.63;;;12.44;85.91
3844;BME280;1937;51.444;6.484;2023-04-29T09:29:21;67928.63;;;12.15;86.52
3844;BME280;1937;51.444;6.484;2023-04-29T09:31:49;67927.84;;;12.05;87.36
3844;BME280;1937;51.444;6.484;2023-04-29T09:34:29;67935.69;;;12.10;86.39
3844;BME280;1937;51.444;6.484;2023-04-29T09:36:56;67926.78;;;12.09;88.33
3844;BME280;1937;51.444;6.484;2023-04-29T09:39:24;68010.81;;;12.35;86.51
3844;BME280;1937;51.444;6.484;2023-04-29T09:41:59;68042.03;;;12.82;84.74
3844;BME280;1937;51.444;6.484;2023-04-29T09:44:28;68010.81;;;12.72;85.16
3844;BME280;1937;51.444;6.484;2023-04-29T09:46:56;68005.09;;;12.72;84.09
3844;BME280;1937;51.444;6.484;2023-04-29T09:49:24;67964.50;;;12.55;83.86
3844;BME280;1937;51.444;6.484;2023-04-29T09:51:52;68011.63;;;12.82;83.60
3844;BME280;1937;51.444;6.484;2023-04-29T09:54:19;68006.72;;;12.69;84.63
3844;BME280;1937;51.444;6.484;2023-04-29T09:56:48;67992.06;;;12.67;83.95
3844;BME280;1937;51.444;6.484;2023-04-29T09:59:17;68032.09;;;13.00;82.90
3844;BME280;1937;51.444;6.484;2023-04-29T10:01:46;68026.84;;;12.95;83.74
3844;BME280;1937;51.444;6.484;2023-04-29T10:04:15;68032.44;;;12.76;83.24
3844;BME280;1937;51.444;6.484;2023-04-29T10:06:43;67971.66;;;12.65;83.34
3844;BME280;1937;51.444;6.484;2023-04-29T10:09:12;68015.66;;;12.97;83.06
3844;BME280;1937;51.444;6.484;2023-04-29T10:11:41;68068.84;;;13.11;83.01
3844;BME280;1937;51.444;6.484;2023-04-29T10:14:11;68046.63;;;13.08;82.58
3844;BME280;1937;51.444;6.484;2023-04-29T10:16:44;68018.84;;;12.97;82.45
3844;BME280;1937;51.444;6.484;2023-04-29T10:19:14;68008.94;;;12.78;83.30
3844;BME280;1937;51.444;6.484;2023-04-29T10:21:43;68025.03;;;12.67;83.85
3844;BME280;1937;51.444;6.484;2023-04-29T10:24:12;68073.53;;;13.16;82.94
3844;BME280;1937;51.444;6.484;2023-04-29T10:26:41;68101.41;;;13.42;82.43
3844;BME280;1937;51.444;6.484;2023-04-29T10:29:10;68068.03;;;13.13;82.27
3844;BME280;1937;51.444;6.484;2023-04-29T10:31:41;68116.34;;;13.41;82.11
3844;BME280;1937;51.444;6.484;2023-04-29T10:34:08;68104.13;;;13.35;81.06
3844;BME280;1937;51.444;6.484;2023-04-29T10:36:37;68145.84;;;13.76;79.93
3844;BME280;1937;51.444;6.484;2023-04-29T10:39:07;68119.56;;;13.58;79.61
3844;BME280;1937;51.444;6.484;2023-04-29T10:41:43;68142.06;;;13.75;79.18
3844;BME280;1937;51.444;6.484;2023-04-29T10:44:11;68232.22;;;13.94;77.59
3844;BME280;1937;51.444;6.484;2023-04-29T10:46:39;68153.59;;;14.03;77.33
3844;BME280;1937;51.444;6.484;2023-04-29T10:49:06;68170.00;;;14.17;76.70
3844;BME280;1937;51.444;6.484;2023-04-29T10:51:33;68151.53;;;14.14;75.26
3844;BME280;1937;51.444;6.484;2023-04-29T10:54:02;68229.94;;;14.46;76.35
3844;BME280;1937;51.444;6.484;2023-04-29T10:56:40;68324.28;;;14.96;75.04
3844;BME280;1937;51.444;6.484;2023-04-29T10:59:11;68283.75;;;14.72;74.04
3844;BME280;1937;51.444;6.484;2023-04-29T11:01:48;68191.81;;;14.40;76.34
3844;BME280;1937;51.444;6.484;2023-04-29T11:04:17;68250.16;;;14.50;76.20
3844;BME280;1937;51.444;6.484;2023-04-29T11:06:46;68309.72;;;14.88;73.91
3844;BME280;1937;51.444;6.484;2023-04-29T11:09:17;68285.00;;;15.05;72.71
3844;BME280;1937;51.444;6.484;2023-04-29T11:12:01;68184.78;;;14.50;73.71
3844;BME280;1937;51.444;6.484;2023-04-29T11:14:31;68152.41;;;14.28;75.18
3844;BME280;1937;51.444;6.484;2023-04-29T11:17:01;68205.53;;;14.50;74.85
3844;BME280;1937;51.444;6.484;2023-04-29T11:19:33;68256.31;;;14.96;73.77
3844;BME280;1937;51.444;6.484;2023-04-29T11:22:13;68283.66;;;15.10;72.60
3844;BME280;1937;51.444;6.484;2023-04-29T11:24:51;68338.91;;;15.20;72.42
3844;BME280;1937;51.444;6.484;2023-04-29T11:27:19;68420.75;;;15.73;70.53
3844;BME280;1937;51.444;6.484;2023-04-29T11:29:50;68434.28;;;15.84;69.69
3844;BME280;1937;51.444;6.484;2023-04-29T11:32:20;68450.03;;;15.93;71.22
3844;BME280;1937;51.444;6.484;2023-04-29T11:34:47;68408.53;;;15.67;72.26
3844;BME280;1937;51.444;6.484;2023-04-29T11:37:19;68416.53;;;15.91;71.48
3844;BME280;1937;51.444;6.484;2023-04-29T11:39:46;68410.28;;;16.11;69.35
3844;BME280;1937;51.444;6.484;2023-04-29T11:42:17;68598.28;;;16.67;69.72
3844;BME280;1937;51.444;6.484;2023-04-29T11:44:44;68574.84;;;16.78;67.23
3844;BME280;1937;51.444;6.484;2023-04-29T11:47:11;68718.69;;;17.42;65.44
3844;BME280;1937;51.444;6.484;2023-04-29T11:49:39;68650.81;;;17.33;64.13
3844;BME280;1937;51.444;6.484;2023-04-29T11:52:07;68470.31;;;16.67;64.62
3844;BME280;1937;51.444;6.484;2023-04-29T11:54:33;68612.94;;;17.34;63.61
3844;BME280;1937;51.444;6.484;2023-04-29T11:57:00;68725.69;;;17.86;61.54
3844;BME280;1937;51.444;6.484;2023-04-29T11:59:30;68911.66;;;18.69;60.70
3844;BME280;1937;51.444;6.484;2023-04-29T12:01:57;69003.59;;;19.12;59.02
3844;BME280;1937;51.444;6.484;2023-04-29T12:04:24;68960.59;;;19.22;57.13
3844;BME280;1937;51.444;6.484;2023-04-29T12:06:52;68836.00;;;18.69;58.59
3844;BME280;1937;51.444;6.484;2023-04-29T12:09:19;68661.66;;;17.82;61.20
3844;BME280;1937;51.444;6.484;2023-04-29T12:11:45;68535.28;;;17.41;62.39
3844;BME280;1937;51.444;6.484;2023-04-29T12:14:13;68504.41;;;17.12;62.60
3844;BME280;1937;51.444;6.484;2023-04-29T12:16:40;68532.00;;;17.20;62.73
3844;BME280;1937;51.444;6.484;2023-04-29T12:19:07;68412.75;;;16.49;65.51
3844;BME280;1937;51.444;6.484;2023-04-29T12:21:34;68365.44;;;15.90;68.08
3844;BME280;1937;51.444;6.484;2023-04-29T12:24:03;68314.59;;;16.02;67.89
3844;BME280;1937;51.444;6.484;2023-04-29T12:26:30;68215.25;;;15.50;68.79
3844;BME280;1937;51.444;6.484;2023-04-29T12:28:57;68223.75;;;15.55;68.16
3844;BME280;1937;51.444;6.484;2023-04-29T12:31:31;68199.19;;;15.38;68.53
3844;BME280;1937;51.444;6.484;2023-04-29T12:33:59;68256.88;;;15.70;67.97
3844;BME280;1937;51.444;6.484;2023-04-29T12:36:27;68285.69;;;15.84;68.69
3844;BME280;1937;51.444;6.484;2023-04-29T12:38:53;68325.63;;;15.76;68.89
3844;BME280;1937;51.444;6.484;2023-04-29T12:44:14;68248.28;;;15.72;66.19
3844;BME280;1937;51.444;6.484;2023-04-29T12:46:41;68383.75;;;16.42;64.66
3844;BME280;1937;51.444;6.484;2023-04-29T12:49:07;68335.97;;;16.18;64.59
3844;BME280;1937;51.444;6.484;2023-04-29T12:51:34;68333.59;;;16.32;64.83
3844;BME280;1937;51.444;6.484;2023-04-29T12:54:02;68444.56;;;16.65;63.39
3844;BME280;1937;51.444;6.484;2023-04-29T12:56:31;68418.63;;;16.69;65.34
3844;BME280;1937;51.444;6.484;2023-04-29T12:59:04;68377.19;;;16.47;63.56
3844;BME280;1937;51.444;6.484;2023-04-29T13:01:33;68356.91;;;16.43;64.60
3844;BME280;1937;51.444;6.484;2023-04-29T13:03:59;68297.16;;;16.12;65.41
3844;BME280;1937;51.444;6.484;2023-04-29T13:06:26;68281.16;;;16.05;66.38
3844;BME280;1937;51.444;6.484;2023-04-29T13:08:53;68287.34;;;15.96;65.89
3844;BME280;1937;51.444;6.484;2023-04-29T13:11:23;68236.88;;;15.80;65.11
3844;BME280;1937;51.444;6.484;2023-04-29T13:13:49;68227.50;;;15.72;65.95
3844;BME280;1937;51.444;6.484;2023-04-29T13:16:17;68252.38;;;15.75;66.58
3844;BME280;1937;51.444;6.484;2023-04-29T13:18:45;68295.50;;;15.99;65.97
3844;BME280;1937;51.444;6.484;2023-04-29T13:21:12;68218.78;;;15.84;66.74
3844;BME280;1937;51.444;6.484;2023-04-29T13:23:38;68306.63;;;16.09;65.40